Time;durP1;ratioP1;P1;durP2;ratioP2;P2;SDS_P1;SDS_P2;PMS_P1;PMS_P2;Temp;Humidity;BMP_temperature;BMP_pressure;BME280_temperature;BME280_humidity;BME280_pressure;Samples;Min_cycle;Max_cycle;Signal;HPM_P1;HPM_P2
2022/12/29 00:01:56;;;;;;;;;;;;;;;7.44;82.11;100232.78;4171110;28;20033;-60
2022/12/29 00:04:00;;;;;;;;;;;;;;;7.43;81.67;100231.06;4169137;28;20020;-58
2022/12/29 00:06:02;;;;;;;;;;;;;;;7.42;81.80;100224.06;4167749;28;20059;-60
2022/12/29 00:08:04;;;;;;;;;;;;;;;7.41;82.10;100231.25;4170631;28;20442;-56
2022/12/29 00:10:07;;;;;;;;;;;;;;;7.43;82.00;100223.03;4170161;28;20374;-59
2022/12/29 00:12:09;;;;;;;;;;;;;;;7.46;81.59;100220.00;4168542;28;20004;-59
2022/12/29 00:16:30;;;;;;;;;;;;;;;7.46;81.31;100231.59;4165610;28;20506;-61
2022/12/29 00:18:33;;;;;;;;;;;;;;;7.48;81.35;100224.19;4169019;28;20021;-61
2022/12/29 00:36:58;;;;;;;;;;;;;;;7.53;80.63;100197.66;4167631;28;20024;-61
2022/12/29 00:46:04;;;;;;;;;;;;;;;7.58;79.74;100191.75;4166294;28;20020;-59
2022/12/29 00:48:06;;;;;;;;;;;;;;;7.57;79.71;100206.22;4171967;28;20023;-59
2022/12/29 00:50:07;;;;;;;;;;;;;;;7.60;79.67;100210.41;4171692;28;20417;-59
2022/12/29 00:52:12;;;;;;;;;;;;;;;7.59;79.64;100188.06;4172421;28;20024;-58
2022/12/29 00:54:13;;;;;;;;;;;;;;;7.59;79.52;100188.06;4170612;28;20007;-59
2022/12/29 00:56:15;;;;;;;;;;;;;;;7.60;79.71;100200.50;4172210;28;19992;-57
2022/12/29 00:58:17;;;;;;;;;;;;;;;7.62;79.64;100193.13;4172682;28;20012;-59
2022/12/29 01:00:19;;;;;;;;;;;;;;;7.64;79.13;100192.94;4180286;28;20019;-59
2022/12/29 01:02:21;;;;;;;;;;;;;;;7.65;79.41;100179.34;4174198;28;19978;-60
2022/12/29 01:04:24;;;;;;;;;;;;;;;7.67;79.37;100209.56;4173512;28;20011;-59
2022/12/29 01:06:26;;;;;;;;;;;;;;;7.67;79.19;100179.16;4173278;28;20027;-58
2022/12/29 01:08:29;;;;;;;;;;;;;;;7.66;78.93;100169.41;4172783;28;20027;-59
2022/12/29 01:10:30;;;;;;;;;;;;;;;7.68;79.05;100170.94;4174057;28;20390;-59
2022/12/29 01:12:44;;;;;;;;;;;;;;;7.67;78.83;100188.06;4173865;28;19929;-60
2022/12/29 01:14:46;;;;;;;;;;;;;;;7.71;78.79;100188.53;4176439;28;20007;-54
2022/12/29 01:16:48;;;;;;;;;;;;;;;7.70;78.78;100163.53;4173499;28;20012;-55
2022/12/29 01:18:52;;;;;;;;;;;;;;;7.68;78.99;100167.38;4173419;28;20048;-59
2022/12/29 01:20:59;;;;;;;;;;;;;;;7.69;78.67;100163.69;4172827;28;20019;-55
2022/12/29 01:23:00;;;;;;;;;;;;;;;7.70;78.79;100168.06;4172841;28;20376;-56
2022/12/29 01:25:04;;;;;;;;;;;;;;;7.70;78.94;100173.44;4187680;28;20044;-59
2022/12/29 01:27:06;;;;;;;;;;;;;;;7.73;78.71;100186.53;4172967;28;20023;-63
2022/12/29 01:29:08;;;;;;;;;;;;;;;7.72;78.51;100168.72;4171675;28;20019;-59
2022/12/29 01:31:10;;;;;;;;;;;;;;;7.71;78.33;100175.97;4171995;28;20379;-61
2022/12/29 01:33:12;;;;;;;;;;;;;;;7.71;78.85;100164.34;4171990;28;20478;-61
2022/12/29 01:35:15;;;;;;;;;;;;;;;7.71;78.54;100167.91;4178675;28;20015;-60
2022/12/29 01:37:17;;;;;;;;;;;;;;;7.73;78.31;100167.72;4173085;28;20454;-59
2022/12/29 01:39:19;;;;;;;;;;;;;;;7.73;78.26;100170.41;4171741;28;20027;-59
2022/12/29 01:41:22;;;;;;;;;;;;;;;7.77;78.44;100166.34;4171874;28;20426;-60
2022/12/29 01:43:40;;;;;;;;;;;;;;;7.78;78.09;100170.72;4172902;28;19931;-62
2022/12/29 01:45:43;;;;;;;;;;;;;;;7.79;77.79;100176.94;4177739;28;20032;-60
2022/12/29 01:47:46;;;;;;;;;;;;;;;7.80;77.72;100184.81;4170926;28;20023;-58
2022/12/29 01:49:48;;;;;;;;;;;;;;;7.81;78.20;100199.13;4187627;28;20372;-61
2022/12/29 01:51:51;;;;;;;;;;;;;;;7.80;78.07;100157.94;4173266;28;20016;-61
2022/12/29 01:53:53;;;;;;;;;;;;;;;7.78;78.34;100165.34;4172473;28;20012;-56
2022/12/29 01:55:55;;;;;;;;;;;;;;;7.78;78.36;100170.72;4170876;28;19925;-60
2022/12/29 01:58:00;;;;;;;;;;;;;;;7.76;78.20;100167.38;4173127;28;20041;-60
2022/12/29 02:00:03;;;;;;;;;;;;;;;7.78;78.14;100148.38;4188597;28;20415;-60
2022/12/29 02:02:14;;;;;;;;;;;;;;;7.77;78.42;100139.47;4172288;28;20012;-60
2022/12/29 02:04:16;;;;;;;;;;;;;;;7.75;78.15;100134.25;4171230;28;19921;-60
2022/12/29 02:06:19;;;;;;;;;;;;;;;7.75;78.35;100136.13;4171725;28;20024;-61
2022/12/29 02:08:22;;;;;;;;;;;;;;;7.76;78.34;100140.50;4179436;28;20032;-61
2022/12/29 02:10:24;;;;;;;;;;;;;;;7.76;78.08;100137.81;4171921;28;20015;-61
2022/12/29 02:12:26;;;;;;;;;;;;;;;7.76;77.81;100132.44;4187142;28;20019;-59
2022/12/29 02:14:29;;;;;;;;;;;;;;;7.77;78.01;100131.41;4171862;28;20035;-58
2022/12/29 02:16:33;;;;;;;;;;;;;;;7.78;77.84;100133.09;4172178;28;20339;-60
2022/12/29 02:18:38;;;;;;;;;;;;;;;7.80;77.60;100131.06;4170701;28;20435;-60
2022/12/29 02:20:47;;;;;;;;;;;;;;;7.78;77.78;100116.97;4172381;28;20019;-59
2022/12/29 02:22:51;;;;;;;;;;;;;;;7.80;77.91;100127.53;4186529;28;20368;-60
2022/12/29 02:25:07;;;;;;;;;;;;;;;7.80;77.60;100120.31;4170142;28;19927;-62
2022/12/29 02:27:20;;;;;;;;;;;;;;;7.83;77.12;100128.00;4171847;28;20015;-59
2022/12/29 02:29:33;;;;;;;;;;;;;;;7.84;77.06;100104.69;4187507;28;20012;-61
2022/12/29 02:31:37;;;;;;;;;;;;;;;7.86;76.99;100118.78;4178514;28;20035;-60
2022/12/29 02:33:43;;;;;;;;;;;;;;;7.87;76.73;100107.84;4187050;28;20012;-59
2022/12/29 02:35:46;;;;;;;;;;;;;;;7.89;76.88;100129.19;4171666;28;20027;-58
2022/12/29 02:37:50;;;;;;;;;;;;;;;7.89;76.57;100124.63;4187473;28;20027;-60
2022/12/29 02:39:53;;;;;;;;;;;;;;;7.90;76.79;100117.44;4170839;28;20011;-60
2022/12/29 02:41:57;;;;;;;;;;;;;;;7.88;76.96;100114.91;4171979;28;20023;-59
2022/12/29 02:44:00;;;;;;;;;;;;;;;7.86;77.29;100106.16;4172426;28;20415;-61
2022/12/29 02:46:04;;;;;;;;;;;;;;;7.85;77.23;100109.88;4170756;28;19967;-58
2022/12/29 02:48:09;;;;;;;;;;;;;;;7.88;77.30;100103.31;4170802;28;20385;-60
2022/12/29 02:50:13;;;;;;;;;;;;;;;7.91;76.52;100103.78;4170619;28;20023;-60
2022/12/29 02:52:16;;;;;;;;;;;;;;;7.90;76.95;100103.97;4172348;28;20012;-59
2022/12/29 02:56:40;;;;;;;;;;;;;;;7.92;76.75;100118.06;4170140;28;20021;-60
2022/12/29 02:58:42;;;;;;;;;;;;;;;7.87;76.88;100121.28;4187594;28;20024;-59
2022/12/29 03:00:47;;;;;;;;;;;;;;;7.89;77.06;100131.88;4170228;28;20023;-60
2022/12/29 03:02:54;;;;;;;;;;;;;;;7.90;76.91;100126.31;4171540;28;20004;-58
2022/12/29 03:05:09;;;;;;;;;;;;;;;7.92;76.94;100110.00;4176571;28;20019;-60
2022/12/29 03:07:13;;;;;;;;;;;;;;;7.92;76.99;100116.22;4170799;28;20454;-60
2022/12/29 03:09:18;;;;;;;;;;;;;;;7.93;76.97;100104.47;4170590;28;20003;-59
2022/12/29 03:16:05;;;;;;;;;;;;;;;7.99;75.91;100081.38;4169167;28;20008;-61
2022/12/29 03:18:10;;;;;;;;;;;;;;;8.00;76.29;100074.19;4169689;28;20391;-62
2022/12/29 03:20:14;;;;;;;;;;;;;;;7.97;76.53;100069.97;4177180;28;20019;-58
2022/12/29 03:22:31;;;;;;;;;;;;;;;7.97;76.68;100072.66;4177035;28;20024;-61
2022/12/29 03:24:47;;;;;;;;;;;;;;;8.02;76.54;100074.84;4176842;28;20011;-60
2022/12/29 03:26:49;;;;;;;;;;;;;;;8.02;76.41;100072.13;4169916;28;20012;-62
2022/12/29 03:28:53;;;;;;;;;;;;;;;8.03;76.33;100069.28;4178311;28;20458;-60
2022/12/29 03:30:58;;;;;;;;;;;;;;;8.05;76.15;100061.03;4169104;28;20031;-59
2022/12/29 03:33:02;;;;;;;;;;;;;;;8.07;76.23;100075.13;4169818;28;20015;-59
2022/12/29 03:35:06;;;;;;;;;;;;;;;8.08;75.91;100071.44;4185407;28;20003;-61
2022/12/29 03:37:10;;;;;;;;;;;;;;;8.08;75.86;100068.75;4186431;28;20015;-60
2022/12/29 03:39:12;;;;;;;;;;;;;;;8.12;75.93;100072.78;4169100;28;20016;-61
2022/12/29 03:41:15;;;;;;;;;;;;;;;8.14;75.59;100069.91;4169128;28;20011;-61
2022/12/29 03:43:18;;;;;;;;;;;;;;;8.14;75.94;100067.22;4169547;28;20747;-59
2022/12/29 03:45:22;;;;;;;;;;;;;;;8.13;75.91;100060.97;4170534;28;20032;-59
2022/12/29 03:47:24;;;;;;;;;;;;;;;8.15;76.00;100066.19;4170241;28;20023;-61
2022/12/29 03:49:26;;;;;;;;;;;;;;;8.18;75.76;100060.44;4176261;28;20023;-58
2022/12/29 03:51:28;;;;;;;;;;;;;;;8.19;76.02;100070.19;4177143;28;20040;-60
2022/12/29 03:53:33;;;;;;;;;;;;;;;8.19;75.90;100062.13;4187091;28;20016;-61
2022/12/29 03:55:35;;;;;;;;;;;;;;;8.18;75.97;100069.38;4168449;28;20354;-61
2022/12/29 03:57:38;;;;;;;;;;;;;;;8.19;75.93;100065.66;4186604;28;20019;-57
2022/12/29 03:59:43;;;;;;;;;;;;;;;8.22;76.00;100062.59;4176349;28;20465;-60
2022/12/29 04:01:46;;;;;;;;;;;;;;;8.23;75.88;100072.34;4171083;28;20008;-55
2022/12/29 04:03:48;;;;;;;;;;;;;;;8.23;75.75;100083.13;4170401;28;20008;-60
2022/12/29 04:05:51;;;;;;;;;;;;;;;8.23;75.79;100077.72;4185877;28;19995;-56
2022/12/29 04:07:53;;;;;;;;;;;;;;;8.25;75.82;100067.63;4186025;28;20024;-57
2022/12/29 04:09:57;;;;;;;;;;;;;;;8.28;75.35;100066.44;4175822;28;19921;-56
2022/12/29 04:12:01;;;;;;;;;;;;;;;8.29;75.34;100065.41;4169802;28;20007;-57
2022/12/29 04:14:04;;;;;;;;;;;;;;;8.31;75.25;100071.47;4186032;28;20067;-55
2022/12/29 04:16:08;;;;;;;;;;;;;;;8.32;75.23;100061.53;4185051;28;20365;-59
2022/12/29 04:18:11;;;;;;;;;;;;;;;8.34;75.21;100062.19;4170191;28;20020;-59
2022/12/29 04:22:35;;;;;;;;;;;;;;;8.33;75.40;100053.28;4170356;28;20019;-60
2022/12/29 04:24:38;;;;;;;;;;;;;;;8.33;75.32;100057.84;4168499;28;20076;-60
2022/12/29 04:26:41;;;;;;;;;;;;;;;8.29;75.64;100078.84;4175497;28;20530;-58
2022/12/29 04:29:01;;;;;;;;;;;;;;;8.32;75.57;100083.06;4171287;28;20016;-60
2022/12/29 04:31:17;;;;;;;;;;;;;;;8.34;75.83;100078.31;4185009;28;20460;-59
2022/12/29 04:33:21;;;;;;;;;;;;;;;8.35;75.62;100059.31;4176186;28;20475;-61
2022/12/29 04:35:23;;;;;;;;;;;;;;;8.37;75.48;100051.06;4167759;28;20012;-59
2022/12/29 04:37:26;;;;;;;;;;;;;;;8.38;75.38;100050.06;4177000;28;20007;-59
2022/12/29 04:39:28;;;;;;;;;;;;;;;8.41;75.36;100065.84;4168307;28;20463;-60
2022/12/29 04:41:30;;;;;;;;;;;;;;;8.42;75.29;100048.69;4185760;28;20007;-61
2022/12/29 04:43:33;;;;;;;;;;;;;;;8.43;75.36;100047.66;4170422;28;20028;-58
2022/12/29 04:45:45;;;;;;;;;;;;;;;8.41;75.55;100042.44;4169264;28;20004;-60
2022/12/29 04:47:59;;;;;;;;;;;;;;;8.42;75.49;100046.81;4177317;28;20032;-61
2022/12/29 04:50:13;;;;;;;;;;;;;;;8.41;75.80;100049.69;4168622;28;20417;-59
2022/12/29 04:52:19;;;;;;;;;;;;;;;8.40;75.75;100054.25;4185547;28;19925;-59
2022/12/29 04:54:21;;;;;;;;;;;;;;;8.40;75.57;100051.56;4184352;28;20058;-58
2022/12/29 04:56:39;;;;;;;;;;;;;;;8.45;75.68;100057.25;4185350;28;20031;-59
2022/12/29 04:58:42;;;;;;;;;;;;;;;8.50;75.65;100050.50;4185455;28;20035;-60
2022/12/29 05:00:44;;;;;;;;;;;;;;;8.48;75.55;100045.31;4184311;28;20454;-58
2022/12/29 05:02:46;;;;;;;;;;;;;;;8.49;75.61;100030.81;4168718;28;20028;-61
2022/12/29 05:04:50;;;;;;;;;;;;;;;8.47;75.50;100040.94;4168249;28;20012;-60
2022/12/29 05:06:52;;;;;;;;;;;;;;;8.48;75.57;100037.25;4169455;28;20458;-59
2022/12/29 05:08:55;;;;;;;;;;;;;;;8.50;75.43;100043.25;4186062;28;20015;-60
2022/12/29 05:10:56;;;;;;;;;;;;;;;8.49;75.71;100036.19;4184827;28;20016;-62
2022/12/29 05:12:59;;;;;;;;;;;;;;;8.53;75.79;100060.91;4185202;28;20015;-62
2022/12/29 05:15:03;;;;;;;;;;;;;;;8.53;75.37;100032.13;4183574;28;19995;-61
2022/12/29 05:17:05;;;;;;;;;;;;;;;8.53;75.87;100034.00;4169108;28;20508;-61
2022/12/29 05:19:07;;;;;;;;;;;;;;;8.54;75.76;100030.28;4177331;28;20012;-60
2022/12/29 05:21:09;;;;;;;;;;;;;;;8.55;75.79;100030.09;4176257;28;20027;-62
2022/12/29 05:23:11;;;;;;;;;;;;;;;8.55;75.52;100024.72;4169438;28;20026;-62
2022/12/29 05:25:13;;;;;;;;;;;;;;;8.56;75.73;100021.00;4175407;28;20365;-61
2022/12/29 05:27:34;;;;;;;;;;;;;;;8.55;75.65;100018.50;4169278;28;20020;-59
2022/12/29 05:29:54;;;;;;;;;;;;;;;8.57;76.09;100011.91;4170101;28;20367;-60
2022/12/29 05:31:58;;;;;;;;;;;;;;;8.59;75.72;100000.94;4172683;28;20024;-60
2022/12/29 05:34:00;;;;;;;;;;;;;;;8.60;75.73;100008.84;4188645;28;20376;-61
2022/12/29 05:36:04;;;;;;;;;;;;;;;8.63;75.83;99997.72;4171919;28;20028;-61
2022/12/29 05:38:06;;;;;;;;;;;;;;;8.62;75.82;100005.97;4172012;28;20395;-60
2022/12/29 05:40:09;;;;;;;;;;;;;;;8.65;76.06;100008.31;4172666;28;20011;-58
2022/12/29 05:42:11;;;;;;;;;;;;;;;8.71;75.66;100012.13;4173244;28;20443;-60
2022/12/29 05:44:33;;;;;;;;;;;;;;;8.73;75.66;99996.63;4172639;28;20028;-60
2022/12/29 05:46:55;;;;;;;;;;;;;;;8.71;75.40;99998.66;4172114;28;20020;-60
2022/12/29 05:49:21;;;;;;;;;;;;;;;8.70;75.48;100003.22;4172980;28;20016;-60
2022/12/29 05:51:30;;;;;;;;;;;;;;;8.72;75.79;100003.03;4173228;28;20063;-60
2022/12/29 05:53:33;;;;;;;;;;;;;;;8.74;75.71;99999.13;4172431;28;20028;-59
2022/12/29 05:55:35;;;;;;;;;;;;;;;8.75;75.84;100005.38;4171518;28;19924;-61
2022/12/29 05:57:38;;;;;;;;;;;;;;;8.77;75.80;100001.44;4172739;28;20016;-59
2022/12/29 05:59:46;;;;;;;;;;;;;;;8.80;75.73;100000.25;4178568;28;20032;-60
2022/12/29 06:01:49;;;;;;;;;;;;;;;8.81;75.70;99996.56;4171199;28;20465;-62
2022/12/29 06:03:51;;;;;;;;;;;;;;;8.77;75.72;100003.31;4187375;28;20055;-61
2022/12/29 06:05:56;;;;;;;;;;;;;;;8.76;75.97;100007.88;4171022;28;20011;-61
2022/12/29 06:07:58;;;;;;;;;;;;;;;8.75;76.01;100006.19;4171367;28;20499;-61
2022/12/29 06:10:00;;;;;;;;;;;;;;;8.75;75.72;99992.72;4171631;28;20438;-59
2022/12/29 06:12:06;;;;;;;;;;;;;;;8.77;76.15;99981.78;4171848;28;20008;-62
2022/12/29 06:14:09;;;;;;;;;;;;;;;8.75;76.06;99998.13;4171832;28;20019;-62
2022/12/29 06:16:11;;;;;;;;;;;;;;;8.77;76.05;99988.00;4171326;28;20373;-62
2022/12/29 06:18:14;;;;;;;;;;;;;;;8.80;76.21;100003.78;4187280;28;20482;-60
2022/12/29 06:20:16;;;;;;;;;;;;;;;8.79;75.80;100010.22;4169264;28;20020;-61
2022/12/29 06:22:20;;;;;;;;;;;;;;;8.83;76.11;99991.81;4171798;28;20028;-60
2022/12/29 06:24:22;;;;;;;;;;;;;;;8.85;76.03;99981.69;4170351;28;20117;-61
2022/12/29 06:26:24;;;;;;;;;;;;;;;8.84;75.76;99988.13;4178099;28;20665;-61
2022/12/29 06:28:26;;;;;;;;;;;;;;;8.84;76.18;99990.81;4178690;28;20011;-59
2022/12/29 06:30:29;;;;;;;;;;;;;;;8.85;75.69;99981.69;4171616;28;20007;-61
2022/12/29 06:32:31;;;;;;;;;;;;;;;8.90;75.74;99994.59;4170670;28;20012;-60
2022/12/29 06:34:38;;;;;;;;;;;;;;;8.90;75.69;100002.69;4177344;28;20016;-59
2022/12/29 06:36:40;;;;;;;;;;;;;;;8.94;75.63;99985.16;4172168;28;20393;-60
2022/12/29 06:38:43;;;;;;;;;;;;;;;8.96;75.97;99989.31;4187899;28;20015;-56
2022/12/29 06:40:45;;;;;;;;;;;;;;;8.96;75.82;99991.19;4186247;28;20023;-58
2022/12/29 06:43:22;;;;;;;;;;;;;;;8.98;75.81;99998.06;4172351;28;20027;-55
2022/12/29 06:45:47;;;;;;;;;;;;;;;8.97;75.50;99982.09;4165196;28;20016;-58
2022/12/29 06:47:49;;;;;;;;;;;;;;;8.96;75.46;100012.72;4171651;28;20012;-54
2022/12/29 06:49:51;;;;;;;;;;;;;;;8.99;75.74;100001.56;4185240;28;20478;-57
2022/12/29 06:51:53;;;;;;;;;;;;;;;8.99;75.77;100001.56;4172157;28;20015;-56
2022/12/29 06:53:56;;;;;;;;;;;;;;;8.98;75.70;99989.13;4171765;28;20027;-58
2022/12/29 06:55:58;;;;;;;;;;;;;;;9.00;75.87;100004.09;4171113;28;20015;-55
2022/12/29 06:58:01;;;;;;;;;;;;;;;9.00;75.61;100006.78;4171535;28;20477;-56
2022/12/29 07:00:04;;;;;;;;;;;;;;;9.00;75.82;100016.72;4170027;28;20008;-60
2022/12/29 07:02:06;;;;;;;;;;;;;;;9.00;76.01;100014.88;4170543;28;20016;-59
2022/12/29 07:04:08;;;;;;;;;;;;;;;9.00;75.86;100022.13;4170929;28;20015;-60
2022/12/29 07:06:10;;;;;;;;;;;;;;;8.98;76.10;100019.59;4170599;28;20023;-59
2022/12/29 07:08:12;;;;;;;;;;;;;;;8.98;75.79;100025.00;4170646;28;20015;-58
2022/12/29 07:10:15;;;;;;;;;;;;;;;8.98;75.85;100016.91;4170449;28;20012;-60
2022/12/29 07:12:17;;;;;;;;;;;;;;;9.00;75.89;100022.13;4177838;28;20004;-59
2022/12/29 07:14:19;;;;;;;;;;;;;;;9.02;76.16;100020.06;4170643;28;20032;-60
2022/12/29 07:16:21;;;;;;;;;;;;;;;8.99;76.20;100017.75;4169436;28;20019;-58
2022/12/29 07:18:23;;;;;;;;;;;;;;;8.99;76.00;100033.91;4171320;28;19931;-58
2022/12/29 07:20:25;;;;;;;;;;;;;;;8.98;76.38;100024.13;4169897;28;20389;-59
2022/12/29 07:22:27;;;;;;;;;;;;;;;8.98;76.13;100032.22;4169959;28;20015;-60
2022/12/29 07:24:29;;;;;;;;;;;;;;;8.98;76.53;100034.91;4170541;28;20011;-60
2022/12/29 07:26:33;;;;;;;;;;;;;;;8.98;76.37;100027.69;4171288;28;20459;-59
2022/12/29 07:28:35;;;;;;;;;;;;;;;8.99;76.27;100029.34;4171599;28;20399;-60
2022/12/29 07:30:37;;;;;;;;;;;;;;;8.99;76.56;100026.66;4170241;28;20039;-62
2022/12/29 07:32:39;;;;;;;;;;;;;;;9.01;76.31;100027.31;4170751;28;20000;-62
2022/12/29 07:34:41;;;;;;;;;;;;;;;9.02;76.50;100026.28;4169500;28;20011;-61
2022/12/29 07:36:43;;;;;;;;;;;;;;;9.03;76.74;100040.59;4170658;28;20059;-60
2022/12/29 07:38:45;;;;;;;;;;;;;;;9.02;76.43;100045.13;4171314;28;20585;-60
2022/12/29 07:40:47;;;;;;;;;;;;;;;9.04;76.59;100022.56;4169973;28;20023;-60
2022/12/29 07:42:50;;;;;;;;;;;;;;;9.03;76.63;100013.66;4171332;28;20017;-60
2022/12/29 07:45:01;;;;;;;;;;;;;;;9.06;76.78;100020.53;4169022;28;20027;-58
2022/12/29 07:47:09;;;;;;;;;;;;;;;9.05;76.58;100014.31;4171196;28;20040;-61
2022/12/29 07:49:11;;;;;;;;;;;;;;;9.08;76.80;100027.41;4171459;28;20019;-59
2022/12/29 07:51:13;;;;;;;;;;;;;;;9.10;76.84;100019.16;4166920;28;20047;-56
2022/12/29 07:53:15;;;;;;;;;;;;;;;9.08;76.45;100029.28;4170121;28;20011;-60
2022/12/29 07:55:17;;;;;;;;;;;;;;;9.11;76.69;100034.28;4160333;28;20020;-58
2022/12/29 07:57:19;;;;;;;;;;;;;;;9.13;76.79;100018.78;4154333;28;20019;-60
2022/12/29 07:59:22;;;;;;;;;;;;;;;9.13;76.72;100016.09;4154429;28;19921;-60
2022/12/29 08:01:24;;;;;;;;;;;;;;;9.15;76.60;100008.63;4168810;28;20031;-62
2022/12/29 08:03:26;;;;;;;;;;;;;;;9.15;76.42;100016.72;4170134;28;20023;-61
2022/12/29 08:05:28;;;;;;;;;;;;;;;9.18;76.57;100017.22;4168780;28;20021;-61
2022/12/29 08:07:30;;;;;;;;;;;;;;;9.23;76.70;100005.84;4169615;28;20637;-60
2022/12/29 08:09:32;;;;;;;;;;;;;;;9.25;76.42;100011.91;4169902;28;20034;-59
2022/12/29 08:11:34;;;;;;;;;;;;;;;9.29;76.20;100031.22;4170366;28;20085;-61
2022/12/29 08:13:36;;;;;;;;;;;;;;;9.31;76.55;100059.66;4170219;28;20012;-61
2022/12/29 08:15:39;;;;;;;;;;;;;;;9.35;76.36;100070.91;4170531;28;20017;-59
2022/12/29 08:17:41;;;;;;;;;;;;;;;9.36;75.98;100014.13;4168186;28;20011;-58
2022/12/29 08:19:43;;;;;;;;;;;;;;;9.36;76.09;100024.91;4167188;28;20441;-60
2022/12/29 08:21:45;;;;;;;;;;;;;;;9.37;76.06;100013.09;4167610;28;20004;-60
2022/12/29 08:23:48;;;;;;;;;;;;;;;9.39;75.97;99994.06;4167918;28;20020;-61
2022/12/29 08:25:57;;;;;;;;;;;;;;;9.39;75.70;99999.44;4166164;28;20561;-61
2022/12/29 08:27:59;;;;;;;;;;;;;;;9.41;75.84;100020.81;4175088;28;19983;-60
2022/12/29 08:30:01;;;;;;;;;;;;;;;9.43;76.14;100021.47;4167361;28;20011;-62
2022/12/29 08:32:06;;;;;;;;;;;;;;;9.41;75.66;100029.72;4167480;28;20067;-61
2022/12/29 08:34:08;;;;;;;;;;;;;;;9.42;76.14;99996.38;4168015;28;20048;-58
2022/12/29 08:36:10;;;;;;;;;;;;;;;9.41;75.75;100016.25;4168077;28;20015;-62
2022/12/29 08:38:12;;;;;;;;;;;;;;;9.41;75.87;100027.03;4168440;28;20446;-61
2022/12/29 08:40:14;;;;;;;;;;;;;;;9.41;76.13;100007.34;4167662;28;20594;-60
2022/12/29 08:42:16;;;;;;;;;;;;;;;9.39;76.02;100007.53;4169204;28;20055;-61
2022/12/29 08:44:18;;;;;;;;;;;;;;;9.41;76.20;100004.66;4168743;28;20463;-60
2022/12/29 08:46:20;;;;;;;;;;;;;;;9.44;76.18;100004.28;4167066;28;20633;-57
2022/12/29 08:48:26;;;;;;;;;;;;;;;9.43;75.90;100003.41;4173887;28;20011;-57
2022/12/29 08:50:28;;;;;;;;;;;;;;;9.44;75.92;100006.97;4166604;28;20008;-60
2022/12/29 08:52:30;;;;;;;;;;;;;;;9.45;75.99;100008.63;4167774;28;20015;-61
2022/12/29 08:54:32;;;;;;;;;;;;;;;9.44;76.19;100005.09;4167215;28;20073;-59
2022/12/29 08:56:35;;;;;;;;;;;;;;;9.49;76.18;100001.84;4167974;28;19983;-59
2022/12/29 08:58:37;;;;;;;;;;;;;;;9.51;75.83;100005.19;4169108;28;20029;-59
2022/12/29 09:00:39;;;;;;;;;;;;;;;9.52;75.90;100015.78;4159267;28;20028;-60
2022/12/29 09:02:41;;;;;;;;;;;;;;;9.55;75.81;100025.34;4175675;28;20379;-57
2022/12/29 09:04:44;;;;;;;;;;;;;;;9.57;76.08;100009.81;4170277;28;20025;-58
2022/12/29 09:06:46;;;;;;;;;;;;;;;9.61;75.96;100000.34;4171438;28;20012;-60
2022/12/29 09:08:48;;;;;;;;;;;;;;;9.62;75.98;100009.25;4170915;28;20019;-61
2022/12/29 09:10:51;;;;;;;;;;;;;;;9.64;75.88;100007.19;4170773;28;20020;-60
2022/12/29 09:12:53;;;;;;;;;;;;;;;9.65;75.43;99992.69;4172152;28;20043;-56
2022/12/29 09:14:55;;;;;;;;;;;;;;;9.68;75.83;100011.19;4173320;28;20003;-54
2022/12/29 09:19:17;;;;;;;;;;;;;;;9.71;75.51;99997.34;4168849;28;20455;-55
2022/12/29 09:21:20;;;;;;;;;;;;;;;9.77;75.79;99999.28;4171355;28;20016;-58
2022/12/29 09:23:22;;;;;;;;;;;;;;;9.80;75.51;99988.13;4172203;28;19925;-55
2022/12/29 09:25:24;;;;;;;;;;;;;;;9.83;75.45;99985.03;4172119;28;20678;-55
2022/12/29 09:27:26;;;;;;;;;;;;;;;9.84;75.55;100002.03;4171733;28;20020;-56
2022/12/29 09:29:28;;;;;;;;;;;;;;;9.89;75.51;99995.06;4170252;28;20023;-57
2022/12/29 09:31:30;;;;;;;;;;;;;;;9.92;75.04;99991.13;4171651;28;20015;-55
2022/12/29 09:33:34;;;;;;;;;;;;;;;10.01;75.24;100002.66;4171032;28;20020;-55
2022/12/29 09:35:36;;;;;;;;;;;;;;;10.10;75.14;100031.19;4171004;28;20011;-62
2022/12/29 09:37:39;;;;;;;;;;;;;;;10.21;74.99;99982.09;4169970;28;20045;-61
2022/12/29 09:39:41;;;;;;;;;;;;;;;10.34;74.56;99994.91;4169563;28;20359;-60
2022/12/29 09:41:44;;;;;;;;;;;;;;;10.41;74.17;99978.78;4170139;28;20019;-56
2022/12/29 09:43:50;;;;;;;;;;;;;;;10.45;73.65;99982.75;4170552;28;20020;-56
2022/12/29 09:45:54;;;;;;;;;;;;;;;10.51;73.37;99998.16;4169768;28;20012;-58
2022/12/29 09:47:55;;;;;;;;;;;;;;;10.53;73.29;99969.13;4172116;28;20474;-59
2022/12/29 09:49:59;;;;;;;;;;;;;;;10.52;73.06;99974.72;4169780;28;20450;-57
2022/12/29 09:52:03;;;;;;;;;;;;;;;10.56;72.85;99973.28;4170584;28;20016;-57
2022/12/29 09:54:20;;;;;;;;;;;;;;;10.57;72.91;99958.75;4171022;28;20039;-55
2022/12/29 09:56:22;;;;;;;;;;;;;;;10.63;72.93;99961.50;4170396;28;20024;-56
2022/12/29 09:58:26;;;;;;;;;;;;;;;10.68;73.21;99973.59;4169696;28;20019;-57
2022/12/29 10:00:29;;;;;;;;;;;;;;;10.74;72.85;99991.72;4169056;28;20083;-61
2022/12/29 10:02:33;;;;;;;;;;;;;;;10.83;72.88;99968.94;4171536;28;20386;-58
2022/12/29 10:04:35;;;;;;;;;;;;;;;10.87;72.25;100016.09;4169258;28;20015;-60
2022/12/29 10:06:38;;;;;;;;;;;;;;;10.89;72.36;99957.31;4169212;28;20485;-58
2022/12/29 10:08:40;;;;;;;;;;;;;;;10.92;72.23;99970.41;4180899;28;20016;-59
2022/12/29 10:10:45;;;;;;;;;;;;;;;10.94;72.35;99962.97;4167136;28;20339;-58
2022/12/29 10:12:54;;;;;;;;;;;;;;;10.96;72.40;99965.47;4168299;28;20359;-60
2022/12/29 10:14:59;;;;;;;;;;;;;;;10.99;72.25;99962.38;4167004;28;20003;-61
2022/12/29 10:17:03;;;;;;;;;;;;;;;11.03;72.18;99971.72;4169344;28;20012;-58
2022/12/29 10:19:10;;;;;;;;;;;;;;;11.07;71.96;99985.69;4169503;28;20035;-66
2022/12/29 10:21:14;;;;;;;;;;;;;;;11.10;71.94;99960.97;4167169;28;20020;-59
2022/12/29 10:23:21;;;;;;;;;;;;;;;11.15;72.14;99975.53;4167779;28;20211;-59
2022/12/29 10:25:24;;;;;;;;;;;;;;;11.15;71.61;99975.53;4167294;28;20008;-58
2022/12/29 10:27:27;;;;;;;;;;;;;;;11.15;71.72;99964.72;4168860;28;20007;-59
2022/12/29 10:29:33;;;;;;;;;;;;;;;11.17;71.62;99962.69;4168355;28;20003;-57
2022/12/29 10:31:36;;;;;;;;;;;;;;;11.17;71.79;99957.28;4176675;28;20025;-58
2022/12/29 10:33:40;;;;;;;;;;;;;;;11.21;71.78;99960.41;4167850;28;19928;-53
2022/12/29 10:35:43;;;;;;;;;;;;;;;11.22;71.89;99956.66;4164512;28;20367;-59
2022/12/29 10:37:46;;;;;;;;;;;;;;;11.19;71.71;99978.69;4165125;28;20462;-61
2022/12/29 10:39:49;;;;;;;;;;;;;;;11.20;71.94;99976.81;4167723;28;20023;-61
2022/12/29 10:41:52;;;;;;;;;;;;;;;11.22;71.74;99953.13;4167143;28;20011;-59
2022/12/29 10:43:56;;;;;;;;;;;;;;;11.23;71.81;99973.72;4166039;28;19921;-58
2022/12/29 10:45:59;;;;;;;;;;;;;;;11.26;72.00;99974.16;4175190;28;20035;-60
2022/12/29 10:48:01;;;;;;;;;;;;;;;11.29;71.70;99978.31;4168724;28;20016;-58
2022/12/29 10:50:04;;;;;;;;;;;;;;;11.30;71.82;99944.84;4180346;28;20023;-59
2022/12/29 10:52:06;;;;;;;;;;;;;;;11.29;71.55;99957.53;4166513;28;20020;-57
2022/12/29 10:54:11;;;;;;;;;;;;;;;11.32;71.79;99988.75;4171749;28;19921;-56
2022/12/29 10:56:15;;;;;;;;;;;;;;;11.38;71.22;99946.53;4162701;28;20015;-58
2022/12/29 10:58:17;;;;;;;;;;;;;;;11.42;71.42;99959.44;4164219;28;20366;-57
2022/12/29 11:00:22;;;;;;;;;;;;;;;11.38;71.14;99984.38;4164066;28;20031;-60
2022/12/29 11:02:34;;;;;;;;;;;;;;;11.40;71.27;100002.09;4164318;28;20008;-61
2022/12/29 11:04:39;;;;;;;;;;;;;;;11.40;71.18;99953.41;4163665;28;20007;-55
2022/12/29 11:06:41;;;;;;;;;;;;;;;11.39;71.16;99973.38;4164475;28;20016;-59
2022/12/29 11:08:45;;;;;;;;;;;;;;;11.39;71.24;99961.72;4164990;28;20040;-60
2022/12/29 11:10:47;;;;;;;;;;;;;;;11.34;71.74;99967.75;4162191;28;20353;-60
2022/12/29 11:12:56;;;;;;;;;;;;;;;11.32;71.95;99948.19;4165399;28;20023;-61
2022/12/29 11:15:12;;;;;;;;;;;;;;;11.30;71.90;99951.09;4162575;28;20019;-60
2022/12/29 11:17:17;;;;;;;;;;;;;;;11.31;72.00;99963.56;4163752;28;20016;-57
2022/12/29 11:19:22;;;;;;;;;;;;;;;11.33;71.67;99950.69;4163033;28;20044;-60
2022/12/29 11:21:26;;;;;;;;;;;;;;;11.30;71.67;99963.75;4162192;28;20011;-58
2022/12/29 11:23:32;;;;;;;;;;;;;;;11.31;71.89;99958.16;4164270;28;20043;-57
2022/12/29 11:25:34;;;;;;;;;;;;;;;11.28;72.27;99993.69;4163731;28;20028;-60